sensor_id;sensor_type;location;lat;lon;timestamp;P1;durP1;ratioP1;P2;durP2;ratioP2
76259;SDS011;65076;52.362;6.588;2024-03-23T00:54:39;14.45;;;3.33;;
76259;SDS011;65076;52.362;6.588;2024-03-23T00:57:05;17.15;;;4.22;;
76259;SDS011;65076;52.362;6.588;2024-03-23T00:59:31;14.13;;;3.47;;
76259;SDS011;65076;52.362;6.588;2024-03-23T01:01:57;15.88;;;3.45;;
76259;SDS011;65076;52.362;6.588;2024-03-23T01:04:23;17.63;;;4.05;;
76259;SDS011;65076;52.362;6.588;2024-03-23T01:06:49;12.77;;;3.30;;
76259;SDS011;65076;52.362;6.588;2024-03-23T01:09:18;14.13;;;3.60;;
76259;SDS011;65076;52.362;6.588;2024-03-23T01:11:44;18.05;;;4.18;;
76259;SDS011;65076;52.362;6.588;2024-03-23T01:14:10;16.52;;;4.68;;
76259;SDS011;65076;52.362;6.588;2024-03-23T01:16:36;15.00;;;3.47;;
76259;SDS011;65076;52.362;6.588;2024-03-23T01:19:02;14.60;;;4.30;;
76259;SDS011;65076;52.362;6.588;2024-03-23T01:21:28;21.08;;;3.75;;
76259;SDS011;65076;52.362;6.588;2024-03-23T01:23:54;16.67;;;3.70;;
76259;SDS011;65076;52.362;6.588;2024-03-23T01:26:23;10.05;;;3.47;;
76259;SDS011;65076;52.362;6.588;2024-03-23T01:28:49;16.77;;;3.63;;
76259;SDS011;65076;52.362;6.588;2024-03-23T01:31:16;14.95;;;3.75;;
76259;SDS011;65076;52.362;6.588;2024-03-23T01:33:42;11.65;;;2.67;;
76259;SDS011;65076;52.362;6.588;2024-03-23T01:36:08;11.45;;;3.47;;
76259;SDS011;65076;52.362;6.588;2024-03-23T01:38:34;12.70;;;2.95;;
76259;SDS011;65076;52.362;6.588;2024-03-23T01:41:00;13.57;;;3.25;;
76259;SDS011;65076;52.362;6.588;2024-03-23T01:43:28;14.25;;;3.45;;
76259;SDS011;65076;52.362;6.588;2024-03-23T01:45:54;12.35;;;2.75;;
76259;SDS011;65076;52.362;6.588;2024-03-23T01:48:20;14.07;;;3.88;;
76259;SDS011;65076;52.362;6.588;2024-03-23T01:50:46;13.55;;;3.42;;
76259;SDS011;65076;52.362;6.588;2024-03-23T01:53:13;9.70;;;3.03;;
76259;SDS011;65076;52.362;6.588;2024-03-23T01:55:41;11.68;;;3.38;;
76259;SDS011;65076;52.362;6.588;2024-03-23T01:58:07;12.10;;;3.00;;
76259;SDS011;65076;52.362;6.588;2024-03-23T02:00:36;9.00;;;2.88;;
76259;SDS011;65076;52.362;6.588;2024-03-23T02:03:02;14.38;;;3.13;;
76259;SDS011;65076;52.362;6.588;2024-03-23T02:05:48;18.27;;;3.15;;
76259;SDS011;65076;52.362;6.588;2024-03-23T02:08:14;12.23;;;3.22;;
76259;SDS011;65076;52.362;6.588;2024-03-23T02:10:40;14.40;;;3.28;;
76259;SDS011;65076;52.362;6.588;2024-03-23T02:13:06;12.55;;;3.15;;
76259;SDS011;65076;52.362;6.588;2024-03-23T02:15:32;13.63;;;3.30;;
76259;SDS011;65076;52.362;6.588;2024-03-23T02:18:01;21.33;;;4.15;;
76259;SDS011;65076;52.362;6.588;2024-03-23T02:20:27;18.58;;;3.83;;
76259;SDS011;65076;52.362;6.588;2024-03-23T02:22:56;17.27;;;4.30;;
76259;SDS011;65076;52.362;6.588;2024-03-23T02:25:22;20.80;;;3.88;;
76259;SDS011;65076;52.362;6.588;2024-03-23T02:27:48;17.65;;;3.58;;
76259;SDS011;65076;52.362;6.588;2024-03-23T02:30:14;18.23;;;4.07;;
76259;SDS011;65076;52.362;6.588;2024-03-23T02:32:49;21.13;;;3.58;;
76259;SDS011;65076;52.362;6.588;2024-03-23T02:35:15;19.52;;;3.88;;
76259;SDS011;65076;52.362;6.588;2024-03-23T02:37:41;16.33;;;4.32;;
76259;SDS011;65076;52.362;6.588;2024-03-23T02:40:07;17.40;;;4.60;;
76259;SDS011;65076;52.362;6.588;2024-03-23T02:42:34;11.90;;;3.88;;
76259;SDS011;65076;52.362;6.588;2024-03-23T02:45:00;12.43;;;4.82;;
76259;SDS011;65076;52.362;6.588;2024-03-23T02:47:26;15.25;;;4.30;;
76259;SDS011;65076;52.362;6.588;2024-03-23T02:49:54;13.95;;;4.53;;
76259;SDS011;65076;52.362;6.588;2024-03-23T02:52:20;12.15;;;3.83;;
76259;SDS011;65076;52.362;6.588;2024-03-23T02:54:47;15.75;;;4.57;;
76259;SDS011;65076;52.362;6.588;2024-03-23T02:57:13;17.05;;;5.07;;
76259;SDS011;65076;52.362;6.588;2024-03-23T02:59:39;18.17;;;4.95;;
76259;SDS011;65076;52.362;6.588;2024-03-23T03:02:05;19.80;;;4.35;;
76259;SDS011;65076;52.362;6.588;2024-03-23T03:04:31;16.00;;;4.70;;
76259;SDS011;65076;52.362;6.588;2024-03-23T03:06:59;18.15;;;5.18;;
76259;SDS011;65076;52.362;6.588;2024-03-23T03:09:25;16.90;;;5.70;;
76259;SDS011;65076;52.362;6.588;2024-03-23T03:11:52;15.07;;;4.25;;
76259;SDS011;65076;52.362;6.588;2024-03-23T03:14:18;17.33;;;3.97;;
76259;SDS011;65076;52.362;6.588;2024-03-23T03:16:44;17.23;;;5.10;;
76259;SDS011;65076;52.362;6.588;2024-03-23T03:19:10;29.92;;;5.80;;
76259;SDS011;65076;52.362;6.588;2024-03-23T03:21:36;12.02;;;4.25;;
76259;SDS011;65076;52.362;6.588;2024-03-23T03:24:06;11.10;;;3.95;;
76259;SDS011;65076;52.362;6.588;2024-03-23T03:26:32;14.77;;;4.93;;
76259;SDS011;65076;52.362;6.588;2024-03-23T03:28:58;17.85;;;5.63;;
76259;SDS011;65076;52.362;6.588;2024-03-23T03:31:24;15.55;;;4.93;;
76259;SDS011;65076;52.362;6.588;2024-03-23T03:33:50;19.00;;;5.00;;
76259;SDS011;65076;52.362;6.588;2024-03-23T03:36:16;16.15;;;4.57;;
76259;SDS011;65076;52.362;6.588;2024-03-23T03:38:43;15.75;;;4.57;;
76259;SDS011;65076;52.362;6.588;2024-03-23T03:41:11;19.50;;;5.57;;
76259;SDS011;65076;52.362;6.588;2024-03-23T03:43:37;23.60;;;5.38;;
76259;SDS011;65076;52.362;6.588;2024-03-23T03:46:03;19.08;;;5.20;;
76259;SDS011;65076;52.362;6.588;2024-03-23T03:48:30;16.92;;;5.20;;
76259;SDS011;65076;52.362;6.588;2024-03-23T03:50:56;17.40;;;4.90;;
76259;SDS011;65076;52.362;6.588;2024-03-23T03:53:22;12.10;;;4.50;;
76259;SDS011;65076;52.362;6.588;2024-03-23T03:55:48;16.90;;;5.35;;
76259;SDS011;65076;52.362;6.588;2024-03-23T03:58:16;3.45;;;2.30;;
76259;SDS011;65076;52.362;6.588;2024-03-23T04:00:43;15.52;;;5.05;;
76259;SDS011;65076;52.362;6.588;2024-03-23T04:03:09;17.48;;;5.40;;
76259;SDS011;65076;52.362;6.588;2024-03-23T04:05:35;21.85;;;5.50;;
76259;SDS011;65076;52.362;6.588;2024-03-23T04:08:01;21.55;;;3.50;;
76259;SDS011;65076;52.362;6.588;2024-03-23T04:10:27;14.32;;;4.72;;
76259;SDS011;65076;52.362;6.588;2024-03-23T04:12:53;8.68;;;3.92;;
76259;SDS011;65076;52.362;6.588;2024-03-23T04:15:22;24.73;;;5.00;;
76259;SDS011;65076;52.362;6.588;2024-03-23T04:17:48;14.82;;;4.95;;
76259;SDS011;65076;52.362;6.588;2024-03-23T04:20:14;13.55;;;6.00;;
76259;SDS011;65076;52.362;6.588;2024-03-23T04:22:41;12.90;;;4.82;;
76259;SDS011;65076;52.362;6.588;2024-03-23T04:25:07;11.27;;;4.45;;
76259;SDS011;65076;52.362;6.588;2024-03-23T04:27:33;12.77;;;3.05;;
76259;SDS011;65076;52.362;6.588;2024-03-23T04:29:59;12.85;;;3.53;;
76259;SDS011;65076;52.362;6.588;2024-03-23T04:32:27;10.00;;;4.38;;
76259;SDS011;65076;52.362;6.588;2024-03-23T04:34:54;7.03;;;3.13;;
76259;SDS011;65076;52.362;6.588;2024-03-23T04:37:20;17.65;;;5.32;;
76259;SDS011;65076;52.362;6.588;2024-03-23T04:39:46;7.13;;;3.22;;
76259;SDS011;65076;52.362;6.588;2024-03-23T04:42:14;14.20;;;4.68;;
76259;SDS011;65076;52.362;6.588;2024-03-23T04:44:41;12.75;;;4.85;;
76259;SDS011;65076;52.362;6.588;2024-03-23T04:47:07;10.43;;;3.55;;
76259;SDS011;65076;52.362;6.588;2024-03-23T04:49:35;13.23;;;4.45;;
76259;SDS011;65076;52.362;6.588;2024-03-23T04:52:02;14.98;;;4.72;;
76259;SDS011;65076;52.362;6.588;2024-03-23T04:54:29;12.32;;;4.72;;
76259;SDS011;65076;52.362;6.588;2024-03-23T04:56:55;19.95;;;5.95;;
76259;SDS011;65076;52.362;6.588;2024-03-23T04:59:21;14.25;;;5.07;;
76259;SDS011;65076;52.362;6.588;2024-03-23T05:01:47;8.95;;;3.47;;
76259;SDS011;65076;52.362;6.588;2024-03-23T05:04:13;12.65;;;5.18;;
76259;SDS011;65076;52.362;6.588;2024-03-23T05:06:42;14.80;;;5.15;;
76259;SDS011;65076;52.362;6.588;2024-03-23T05:09:08;16.77;;;4.57;;
76259;SDS011;65076;52.362;6.588;2024-03-23T05:11:34;7.65;;;3.85;;
76259;SDS011;65076;52.362;6.588;2024-03-23T05:14:00;11.65;;;4.25;;
76259;SDS011;65076;52.362;6.588;2024-03-23T05:16:26;15.75;;;5.20;;
76259;SDS011;65076;52.362;6.588;2024-03-23T05:21:20;13.18;;;5.18;;
76259;SDS011;65076;52.362;6.588;2024-03-23T05:23:49;19.70;;;6.55;;
76259;SDS011;65076;52.362;6.588;2024-03-23T05:26:15;14.73;;;5.57;;
76259;SDS011;65076;52.362;6.588;2024-03-23T05:28:41;13.48;;;4.97;;
76259;SDS011;65076;52.362;6.588;2024-03-23T05:31:07;15.32;;;5.90;;
76259;SDS011;65076;52.362;6.588;2024-03-23T05:33:34;11.30;;;5.35;;
76259;SDS011;65076;52.362;6.588;2024-03-23T05:36:00;20.27;;;6.78;;
76259;SDS011;65076;52.362;6.588;2024-03-23T05:38:27;13.30;;;5.38;;
76259;SDS011;65076;52.362;6.588;2024-03-23T05:40:56;15.20;;;6.13;;
76259;SDS011;65076;52.362;6.588;2024-03-23T05:43:25;15.60;;;6.35;;
76259;SDS011;65076;52.362;6.588;2024-03-23T05:45:53;15.48;;;6.85;;
76259;SDS011;65076;52.362;6.588;2024-03-23T05:48:19;19.73;;;6.93;;
76259;SDS011;65076;52.362;6.588;2024-03-23T05:50:45;18.60;;;7.00;;
76259;SDS011;65076;52.362;6.588;2024-03-23T05:53:11;16.27;;;7.35;;
76259;SDS011;65076;52.362;6.588;2024-03-23T05:55:38;18.60;;;7.55;;
76259;SDS011;65076;52.362;6.588;2024-03-23T05:58:06;15.32;;;6.70;;
76259;SDS011;65076;52.362;6.588;2024-03-23T06:00:33;13.75;;;6.93;;
76259;SDS011;65076;52.362;6.588;2024-03-23T06:02:59;18.88;;;6.30;;
76259;SDS011;65076;52.362;6.588;2024-03-23T06:05:25;18.48;;;7.82;;
76259;SDS011;65076;52.362;6.588;2024-03-23T06:07:51;15.40;;;7.03;;
76259;SDS011;65076;52.362;6.588;2024-03-23T06:10:17;19.45;;;8.35;;
76259;SDS011;65076;52.362;6.588;2024-03-23T06:12:45;17.95;;;6.85;;
76259;SDS011;65076;52.362;6.588;2024-03-23T06:15:14;12.57;;;5.65;;
76259;SDS011;65076;52.362;6.588;2024-03-23T06:17:40;19.33;;;7.43;;
76259;SDS011;65076;52.362;6.588;2024-03-23T06:20:07;20.83;;;6.25;;
76259;SDS011;65076;52.362;6.588;2024-03-23T06:22:34;15.68;;;6.03;;
76259;SDS011;65076;52.362;6.588;2024-03-23T06:25:00;20.65;;;5.80;;
76259;SDS011;65076;52.362;6.588;2024-03-23T06:27:26;10.23;;;5.63;;
76259;SDS011;65076;52.362;6.588;2024-03-23T06:37:19;11.63;;;6.05;;
76259;SDS011;65076;52.362;6.588;2024-03-23T06:39:46;12.23;;;5.20;;
76259;SDS011;65076;52.362;6.588;2024-03-23T06:47:15;13.00;;;4.43;;
76259;SDS011;65076;52.362;6.588;2024-03-23T06:49:41;11.88;;;3.05;;
76259;SDS011;65076;52.362;6.588;2024-03-23T06:57:11;9.18;;;2.95;;
76259;SDS011;65076;52.362;6.588;2024-03-23T07:07:00;5.20;;;1.58;;
76259;SDS011;65076;52.362;6.588;2024-03-23T07:09:27;13.45;;;2.58;;
76259;SDS011;65076;52.362;6.588;2024-03-23T07:11:54;5.05;;;1.48;;
76259;SDS011;65076;52.362;6.588;2024-03-23T07:14:24;4.60;;;1.30;;
76259;SDS011;65076;52.362;6.588;2024-03-23T07:16:51;4.63;;;2.08;;
76259;SDS011;65076;52.362;6.588;2024-03-23T07:19:17;3.42;;;1.30;;
76259;SDS011;65076;52.362;6.588;2024-03-23T07:21:43;2.28;;;0.90;;
76259;SDS011;65076;52.362;6.588;2024-03-23T07:24:10;4.18;;;1.52;;
76259;SDS011;65076;52.362;6.588;2024-03-23T07:26:37;1.83;;;1.08;;
76259;SDS011;65076;52.362;6.588;2024-03-23T07:29:03;6.05;;;1.15;;
76259;SDS011;65076;52.362;6.588;2024-03-23T07:31:32;3.22;;;1.15;;
76259;SDS011;65076;52.362;6.588;2024-03-23T07:33:59;5.03;;;1.00;;
76259;SDS011;65076;52.362;6.588;2024-03-23T07:36:25;1.30;;;0.50;;
76259;SDS011;65076;52.362;6.588;2024-03-23T07:38:51;4.20;;;0.60;;
76259;SDS011;65076;52.362;6.588;2024-03-23T07:41:18;2.72;;;0.50;;
76259;SDS011;65076;52.362;6.588;2024-03-23T07:43:46;2.42;;;0.50;;
76259;SDS011;65076;52.362;6.588;2024-03-23T07:46:14;2.80;;;0.50;;
76259;SDS011;65076;52.362;6.588;2024-03-23T07:48:43;1.95;;;0.70;;
76259;SDS011;65076;52.362;6.588;2024-03-23T07:56:06;2.83;;;1.00;;
76259;SDS011;65076;52.362;6.588;2024-03-23T07:58:34;3.50;;;1.35;;
76259;SDS011;65076;52.362;6.588;2024-03-23T08:01:03;3.83;;;1.10;;
76259;SDS011;65076;52.362;6.588;2024-03-23T08:03:30;3.10;;;0.88;;
76259;SDS011;65076;52.362;6.588;2024-03-23T08:05:59;4.93;;;1.00;;
76259;SDS011;65076;52.362;6.588;2024-03-23T08:30:47;8.02;;;2.00;;
76259;SDS011;65076;52.362;6.588;2024-03-23T08:33:14;5.78;;;2.42;;
76259;SDS011;65076;52.362;6.588;2024-03-23T08:43:10;6.35;;;2.60;;
76259;SDS011;65076;52.362;6.588;2024-03-23T08:45:39;9.65;;;3.47;;
76259;SDS011;65076;52.362;6.588;2024-03-23T08:58:04;9.90;;;3.35;;
76259;SDS011;65076;52.362;6.588;2024-03-23T09:10:28;6.93;;;2.25;;
76259;SDS011;65076;52.362;6.588;2024-03-23T09:52:29;5.55;;;3.65;;
76259;SDS011;65076;52.362;6.588;2024-03-23T10:04:49;6.95;;;1.70;;
76259;SDS011;65076;52.362;6.588;2024-03-23T10:12:16;6.25;;;1.60;;
76259;SDS011;65076;52.362;6.588;2024-03-23T10:14:45;6.50;;;1.20;;
76259;SDS011;65076;52.362;6.588;2024-03-23T10:17:12;5.53;;;2.10;;
76259;SDS011;65076;52.362;6.588;2024-03-23T10:19:40;6.07;;;2.33;;
76259;SDS011;65076;52.362;6.588;2024-03-23T10:22:08;6.13;;;1.20;;
76259;SDS011;65076;52.362;6.588;2024-03-23T10:24:35;7.07;;;1.40;;
76259;SDS011;65076;52.362;6.588;2024-03-23T10:27:01;6.68;;;1.50;;
76259;SDS011;65076;52.362;6.588;2024-03-23T10:29:30;4.63;;;0.90;;
76259;SDS011;65076;52.362;6.588;2024-03-23T10:34:25;2.63;;;0.75;;
76259;SDS011;65076;52.362;6.588;2024-03-23T10:36:52;4.25;;;0.77;;
76259;SDS011;65076;52.362;6.588;2024-03-23T10:41:51;0.93;;;0.40;;
76259;SDS011;65076;52.362;6.588;2024-03-23T10:54:17;1.75;;;0.98;;
76259;SDS011;65076;52.362;6.588;2024-03-23T11:49:00;3.03;;;1.17;;
76259;SDS011;65076;52.362;6.588;2024-03-23T12:03:49;1.13;;;0.73;;
76259;SDS011;65076;52.362;6.588;2024-03-23T12:28:41;4.35;;;0.95;;
76259;SDS011;65076;52.362;6.588;2024-03-23T12:36:04;2.63;;;0.50;;
76259;SDS011;65076;52.362;6.588;2024-03-23T12:38:30;1.85;;;0.60;;
76259;SDS011;65076;52.362;6.588;2024-03-23T12:40:56;2.10;;;0.50;;
76259;SDS011;65076;52.362;6.588;2024-03-23T12:53:18;1.25;;;0.60;;
76259;SDS011;65076;52.362;6.588;2024-03-23T13:35:24;1.67;;;0.80;;
76259;SDS011;65076;52.362;6.588;2024-03-23T14:49:44;3.72;;;0.90;;
76259;SDS011;65076;52.362;6.588;2024-03-23T14:57:11;1.60;;;0.80;;
76259;SDS011;65076;52.362;6.588;2024-03-23T15:04:54;3.00;;;1.02;;
76259;SDS011;65076;52.362;6.588;2024-03-23T15:17:20;4.15;;;0.90;;
76259;SDS011;65076;52.362;6.588;2024-03-23T15:29:41;3.33;;;0.90;;
76259;SDS011;65076;52.362;6.588;2024-03-23T15:39:35;5.22;;;1.52;;
76259;SDS011;65076;52.362;6.588;2024-03-23T15:42:01;2.15;;;0.60;;
76259;SDS011;65076;52.362;6.588;2024-03-23T15:49:28;5.97;;;2.67;;
76259;SDS011;65076;52.362;6.588;2024-03-23T15:59:26;4.95;;;1.80;;
76259;SDS011;65076;52.362;6.588;2024-03-23T16:11:46;3.13;;;1.08;;
76259;SDS011;65076;52.362;6.588;2024-03-23T16:14:26;1.08;;;0.35;;
76259;SDS011;65076;52.362;6.588;2024-03-23T16:19:20;4.90;;;0.60;;
76259;SDS011;65076;52.362;6.588;2024-03-23T16:41:40;4.25;;;2.05;;
76259;SDS011;65076;52.362;6.588;2024-03-23T16:44:09;3.95;;;0.65;;
76259;SDS011;65076;52.362;6.588;2024-03-23T16:51:29;3.60;;;0.90;;
76259;SDS011;65076;52.362;6.588;2024-03-23T17:06:22;7.07;;;0.88;;
76259;SDS011;65076;52.362;6.588;2024-03-23T17:11:20;2.90;;;0.75;;
76259;SDS011;65076;52.362;6.588;2024-03-23T17:16:20;5.63;;;1.10;;
76259;SDS011;65076;52.362;6.588;2024-03-23T17:26:19;4.68;;;1.00;;
76259;SDS011;65076;52.362;6.588;2024-03-23T17:28:48;3.30;;;1.17;;
76259;SDS011;65076;52.362;6.588;2024-03-23T17:36:12;3.95;;;1.33;;
76259;SDS011;65076;52.362;6.588;2024-03-23T17:56:05;5.20;;;0.95;;
76259;SDS011;65076;52.362;6.588;2024-03-23T18:28:15;7.95;;;2.92;;
76259;SDS011;65076;52.362;6.588;2024-03-23T18:40:34;36.85;;;11.32;;
76259;SDS011;65076;52.362;6.588;2024-03-23T18:43:04;13.02;;;4.82;;
76259;SDS011;65076;52.362;6.588;2024-03-23T19:05:22;25.05;;;8.32;;
76259;SDS011;65076;52.362;6.588;2024-03-23T19:15:17;12.52;;;4.93;;
76259;SDS011;65076;52.362;6.588;2024-03-23T19:30:11;3.92;;;2.00;;
76259;SDS011;65076;52.362;6.588;2024-03-23T19:52:28;6.85;;;4.13;;
76259;SDS011;65076;52.362;6.588;2024-03-23T20:12:14;3.90;;;1.35;;
76259;SDS011;65076;52.362;6.588;2024-03-23T20:34:31;5.15;;;1.92;;
76259;SDS011;65076;52.362;6.588;2024-03-23T20:41:57;2.40;;;1.40;;
76259;SDS011;65076;52.362;6.588;2024-03-23T20:44:27;1.95;;;0.93;;
76259;SDS011;65076;52.362;6.588;2024-03-23T20:49:23;2.38;;;1.42;;
76259;SDS011;65076;52.362;6.588;2024-03-23T20:51:53;5.40;;;1.70;;
76259;SDS011;65076;52.362;6.588;2024-03-23T21:01:48;4.32;;;1.20;;
76259;SDS011;65076;52.362;6.588;2024-03-23T21:19:09;1.40;;;1.08;;
76259;SDS011;65076;52.362;6.588;2024-03-23T21:43:56;3.28;;;1.30;;
76259;SDS011;65076;52.362;6.588;2024-03-23T21:53:53;4.55;;;1.55;;
76259;SDS011;65076;52.362;6.588;2024-03-23T21:56:23;3.78;;;1.70;;
76259;SDS011;65076;52.362;6.588;2024-03-23T22:06:20;3.28;;;1.45;;
76259;SDS011;65076;52.362;6.588;2024-03-23T22:23:40;4.43;;;1.75;;
76259;SDS011;65076;52.362;6.588;2024-03-23T22:26:11;3.72;;;1.80;;
76259;SDS011;65076;52.362;6.588;2024-03-23T22:41:03;3.92;;;1.30;;
76259;SDS011;65076;52.362;6.588;2024-03-23T22:50:56;4.03;;;1.63;;
76259;SDS011;65076;52.362;6.588;2024-03-23T22:58:26;4.60;;;1.65;;
76259;SDS011;65076;52.362;6.588;2024-03-23T23:20:51;4.78;;;1.63;;
76259;SDS011;65076;52.362;6.588;2024-03-23T23:23:19;4.80;;;1.30;;
76259;SDS011;65076;52.362;6.588;2024-03-23T23:48:09;4.85;;;1.83;;
